»·PEaware :: DAL1811 KBZN-KSLC

DAL1811 :: KBZN-KSLC

FLIGHT INFORMATION

Flight Status: Arrived
Operator:
Delta Air Lines
More flights by this operator :: More flights under this callsign
Pilot: Patricio R. (14780)
Aircraft: AIRBUS A320
(A320)
More flights by this aircraft type
Origin: KBZN Gallatin
United States
Destination: KSLC Salt Lake City Intl
United States
More flights between these airports :: More routes between these airports
Route: TEERX4 DBS NORDK5
File this flight plan on PilotEdge
Remarks:
Altitude:
(Current/Filed)
34,000ft
Speed:
(Current/Filed)
451kts
Departed: 06-Aug-18 05:38 PM
Arrived: 06-Aug-18 06:36 PM
Distance/Time
Traveled:
302nm/0:58
Distance/Time
To Go:
Arrived

Flight Plot

Page will automatically refresh every two minutes.

Flight plan parsing failed; only flown route is shown


Map Options




Map Legend


Flown Route
Filed Route
Departure Airport
Arrival Airport
Navaid (VOR, NDB)
Fix

Horizontal Profiles

Position Reports

Time Latitude Longitude Heading Altitude Ground
Speed
06-Aug-18 16:52 45.778531 -111.159948 234 4458ft 0kts
06-Aug-18 16:53 45.778531 -111.159948 234 4458ft 0kts
06-Aug-18 16:54 45.778531 -111.159948 234 4458ft 0kts
06-Aug-18 16:55 45.778531 -111.159948 234 4458ft 0kts
06-Aug-18 16:56 45.778531 -111.159948 234 4458ft 0kts
06-Aug-18 16:57 45.778531 -111.159948 234 4458ft 0kts
06-Aug-18 16:58 45.778531 -111.159948 234 4458ft 0kts
06-Aug-18 16:59 45.778531 -111.159948 234 4458ft 0kts
06-Aug-18 17:00 45.778531 -111.159948 234 4458ft 0kts
06-Aug-18 17:01 45.778531 -111.159948 234 4458ft 0kts
06-Aug-18 17:02 45.778531 -111.159948 234 4458ft 0kts
06-Aug-18 17:03 45.778531 -111.159948 234 4458ft 0kts
06-Aug-18 17:04 45.778531 -111.159948 234 4458ft 0kts
06-Aug-18 17:05 45.778531 -111.159948 234 4458ft 0kts
06-Aug-18 17:06 45.778531 -111.159948 234 4458ft 0kts
06-Aug-18 17:07 45.778531 -111.159948 234 4458ft 0kts
06-Aug-18 17:08 45.778531 -111.159948 234 4458ft 0kts
06-Aug-18 17:09 45.778531 -111.159948 234 4458ft 0kts
06-Aug-18 17:10 45.778531 -111.159948 234 4458ft 0kts
06-Aug-18 17:11 45.778531 -111.159948 234 4458ft 0kts
06-Aug-18 17:12 45.778531 -111.159948 234 4458ft 0kts
06-Aug-18 17:13 45.778531 -111.159948 234 4458ft 0kts
06-Aug-18 17:14 45.778531 -111.159948 234 4458ft 0kts
06-Aug-18 17:15 45.778531 -111.159948 234 4458ft 0kts
06-Aug-18 17:16 45.778531 -111.159948 234 4458ft 0kts
06-Aug-18 17:17 45.778531 -111.159948 234 4458ft 0kts
06-Aug-18 17:18 45.778531 -111.159948 234 4458ft 0kts
06-Aug-18 17:19 45.778531 -111.159948 234 4458ft 0kts
06-Aug-18 17:20 45.778531 -111.159948 234 4458ft 0kts
06-Aug-18 17:21 45.778531 -111.159948 234 4458ft 0kts
06-Aug-18 17:22 45.778531 -111.159948 234 4458ft 0kts
06-Aug-18 17:23 45.778531 -111.159948 234 4458ft 0kts
06-Aug-18 17:24 45.778531 -111.159948 234 4458ft 0kts
06-Aug-18 17:25 45.778531 -111.159948 234 4458ft 0kts
06-Aug-18 17:26 45.778531 -111.159948 234 4458ft 0kts
06-Aug-18 17:27 45.778531 -111.159948 234 4458ft 0kts
06-Aug-18 17:28 45.778531 -111.159948 234 4458ft 0kts
06-Aug-18 17:29 45.778531 -111.159948 234 4458ft 0kts
06-Aug-18 17:30 45.778531 -111.159948 234 4458ft 0kts
06-Aug-18 17:31 45.778531 -111.159948 234 4458ft 0kts
06-Aug-18 17:32 45.778531 -111.159948 234 4458ft 0kts
06-Aug-18 17:33 45.778609 -111.159435 284 4458ft 2kts
06-Aug-18 17:34 45.778467 -111.159095 318 4459ft 0kts
06-Aug-18 17:35 45.778971 -111.159411 6 4456ft 10kts
06-Aug-18 17:36 45.782159 -111.162320 315 4448ft 19kts
06-Aug-18 17:37 45.785734 -111.167323 315 4440ft 18kts
06-Aug-18 17:38 45.787678 -111.165915 132 4432ft 0kts
06-Aug-18 17:39 45.771646 -111.143579 136 4590ft 184kts
06-Aug-18 17:40 45.729503 -111.143817 236 7189ft 209kts
06-Aug-18 17:41 45.700454 -111.230637 278 9035ft 284kts
06-Aug-18 17:42 45.713939 -111.348732 279 11419ft 329kts
06-Aug-18 17:43 45.729404 -111.485869 279 13757ft 359kts
06-Aug-18 17:44 45.725851 -111.626860 238 16323ft 372kts
06-Aug-18 17:45 45.635326 -111.689407 194 18530ft 392kts
06-Aug-18 17:46 45.538023 -111.722269 195 20438ft 403kts
06-Aug-18 17:47 45.427986 -111.760054 195 22350ft 414kts
06-Aug-18 17:48 45.314783 -111.798873 196 24077ft 424kts
06-Aug-18 17:49 45.199201 -111.838347 196 25644ft 434kts
06-Aug-18 17:50 45.081110 -111.878509 196 27087ft 442kts
06-Aug-18 17:51 44.960984 -111.919180 196 28480ft 448kts
06-Aug-18 17:52 44.843554 -111.958783 196 29603ft 455kts
06-Aug-18 17:53 44.719969 -112.000281 196 30637ft 463kts
06-Aug-18 17:54 44.595360 -112.041904 196 31952ft 460kts
06-Aug-18 17:55 44.471347 -112.083172 196 33181ft 457kts
06-Aug-18 17:56 44.348163 -112.123996 197 34246ft 456kts
06-Aug-18 17:57 44.225708 -112.164401 197 34306ft 454kts
06-Aug-18 17:58 44.102469 -112.202396 188 34310ft 459kts
06-Aug-18 17:59 43.974853 -112.179833 172 34303ft 466kts
06-Aug-18 18:00 43.851528 -112.147840 172 34284ft 465kts
06-Aug-18 18:01 43.730382 -112.116640 172 34283ft 465kts
06-Aug-18 18:02 43.603635 -112.084139 172 34296ft 466kts
06-Aug-18 18:03 43.476335 -112.051629 172 34308ft 466kts
06-Aug-18 18:04 43.349155 -112.019287 172 34314ft 466kts
06-Aug-18 18:05 43.221768 -111.987029 172 34314ft 467kts
06-Aug-18 18:06 43.094514 -111.954915 172 34314ft 467kts
06-Aug-18 18:07 42.966906 -111.922862 173 34292ft 467kts
06-Aug-18 18:08 42.844443 -111.892238 174 33623ft 469kts
06-Aug-18 18:09 42.715983 -111.862032 181 32658ft 467kts
06-Aug-18 18:10 42.591399 -111.890971 198 31664ft 452kts
06-Aug-18 18:11 42.470329 -111.930065 198 30511ft 442kts
06-Aug-18 18:12 42.353014 -111.967860 197 28419ft 430kts
06-Aug-18 18:13 42.238645 -112.004607 197 26312ft 419kts
06-Aug-18 18:14 42.126727 -112.038665 188 24362ft 413kts
06-Aug-18 18:15 42.010909 -112.030313 179 24216ft 417kts
06-Aug-18 18:16 41.896617 -112.019543 179 22228ft 422kts
06-Aug-18 18:17 41.800874 -112.010793 182 21323ft 398kts
06-Aug-18 18:18 41.692511 -112.025557 189 20358ft 390kts
06-Aug-18 18:19 41.585978 -112.042177 189 19409ft 384kts
06-Aug-18 18:20 41.481281 -112.059415 192 18191ft 374kts
06-Aug-18 18:21 41.379585 -112.081586 191 16924ft 368kts
06-Aug-18 18:22 41.279874 -112.103150 191 15695ft 362kts
06-Aug-18 18:23 41.181907 -112.124280 191 14499ft 353kts
06-Aug-18 18:24 41.085679 -112.144819 187 13317ft 349kts
06-Aug-18 18:25 40.989952 -112.128643 171 12149ft 346kts
06-Aug-18 18:26 40.897579 -112.109188 174 11091ft 333kts
06-Aug-18 18:27 40.810922 -112.098941 175 11041ft 307kts
06-Aug-18 18:28 40.726444 -112.089047 175 10919ft 296kts
06-Aug-18 18:29 40.647914 -112.079823 175 10319ft 277kts
06-Aug-18 18:30 40.578862 -112.057017 126 9553ft 257kts
06-Aug-18 18:31 40.587844 -111.980811 26 8654ft 207kts
06-Aug-18 18:32 40.632658 -111.957919 0 7614ft 153kts
06-Aug-18 18:33 40.673918 -111.961450 353 6223ft 149kts
06-Aug-18 18:34 40.714507 -111.966151 353 5442ft 146kts
06-Aug-18 18:35 40.754582 -111.970769 353 4648ft 144kts
06-Aug-18 18:36 40.789987 -111.974922 354 4236ft 61kts
06-Aug-18 18:37 40.793823 -111.977536 174 4236ft 17kts
06-Aug-18 18:38 40.790256 -111.978154 267 4236ft 8kts
06-Aug-18 18:39 40.788411 -111.979910 197 4236ft 12kts
06-Aug-18 18:40 40.786677 -111.979828 163 4236ft 1kts
06-Aug-18 18:41 40.786656 -111.979819 162 4236ft 0kts

Navigation Log

Ident Type
Flight plan parsing failed, navigation log unavailable